Time;durP1;ratioP1;P1;durP2;ratioP2;P2;SDS_P1;SDS_P2;PMS_P1;PMS_P2;Temp;Humidity;BMP_temperature;BMP_pressure;BME280_temperature;BME280_humidity;BME280_pressure;Samples;Min_cycle;Max_cycle;Signal;HPM_P1;HPM_P2
2023/12/20 00:00:12;;;;;;;;;;;;;;;;;;5108266;28;20380;-53
2023/12/20 00:02:39;;;;;;;;;;;;;;;;;;5107607;28;19984;-53
2023/12/20 00:05:05;;;;;;;;;;;;;;;;;;5108524;28;19924;-54
2023/12/20 00:07:31;;;;;;;;;;;;;;;;;;5108700;28;19934;-53
2023/12/20 00:09:57;;;;;;;;;;;;;;;;;;5108547;28;19927;-54
2023/12/20 00:12:23;;;;;;;;;;;;;;;;;;5108224;28;19932;-54
2023/12/20 00:14:49;;;;;;;;;;;;;;;;;;5107938;28;19996;-53
2023/12/20 00:17:16;;;;;;;;;;;;;;;;;;5108229;28;19924;-52
2023/12/20 00:19:42;;;;;;;;;;;;;;;;;;5108565;27;19976;-53
2023/12/20 00:22:08;;;;;;;;;;;;;;;;;;5107875;28;20012;-52
2023/12/20 00:24:34;;;;;;;;;;;;;;;;;;5107977;28;19931;-54
2023/12/20 00:27:00;;;;;;;;;;;;;;;;;;5107753;28;19958;-53
2023/12/20 00:29:27;;;;;;;;;;;;;;;;;;5108093;28;20276;-54
2023/12/20 00:31:53;;;;;;;;;;;;;;;;;;5108603;28;19968;-53
2023/12/20 00:34:19;;;;;;;;;;;;;;;;;;5108131;28;19923;-54
2023/12/20 00:36:45;;;;;;;;;;;;;;;;;;5108178;28;20341;-54
2023/12/20 00:39:11;;;;;;;;;;;;;;;;;;5107294;27;19930;-53
2023/12/20 00:41:37;;;;;;;;;;;;;;;;;;5108198;28;19963;-54
2023/12/20 00:44:04;;;;;;;;;;;;;;;;;;5107791;28;19924;-54
2023/12/20 00:46:30;;;;;;;;;;;;;;;;;;5107521;28;20347;-54
2023/12/20 00:48:56;;;;;;;;;;;;;;;;;;5107646;28;19962;-53
2023/12/20 00:51:22;;;;;;;;;;;;;;;;;;5107942;28;19939;-53
2023/12/20 00:53:49;;;;;;;;;;;;;;;;;;5107608;28;19931;-53
2023/12/20 00:56:15;;;;;;;;;;;;;;;;;;5106948;28;19946;-54
2023/12/20 00:58:41;;;;;;;;;;;;;;;;;;5107605;28;19946;-53
2023/12/20 01:01:07;;;;;;;;;;;;;;;;;;5107357;28;19961;-53
2023/12/20 01:03:34;;;;;;;;;;;;;;;;;;5107608;28;19932;-53
2023/12/20 01:06:00;;;;;;;;;;;;;;;;;;5107487;28;19938;-53
2023/12/20 01:08:26;;;;;;;;;;;;;;;;;;5107446;28;20019;-53
2023/12/20 01:10:52;;;;;;;;;;;;;;;;;;5106644;28;19996;-54
2023/12/20 01:13:18;;;;;;;;;;;;;;;;;;5106860;28;19993;-54
2023/12/20 01:15:45;;;;;;;;;;;;;;;;;;5106886;28;20010;-54
2023/12/20 01:18:11;;;;;;;;;;;;;;;;;;5107084;28;19939;-53
2023/12/20 01:20:37;;;;;;;;;;;;;;;;;;5107283;27;19967;-52
2023/12/20 01:23:03;;;;;;;;;;;;;;;;;;5106802;28;19963;-54
2023/12/20 01:25:29;;;;;;;;;;;;;;;;;;5106509;28;19949;-53
2023/12/20 01:27:56;;;;;;;;;;;;;;;;;;5106259;28;19935;-53
2023/12/20 01:30:22;;;;;;;;;;;;;;;;;;5107305;28;19985;-54
2023/12/20 01:32:48;;;;;;;;;;;;;;;;;;5107015;28;19931;-53
2023/12/20 01:35:14;;;;;;;;;;;;;;;;;;5106572;28;20323;-54
2023/12/20 01:37:40;;;;;;;;;;;;;;;;;;5106432;28;19931;-53
2023/12/20 01:40:07;;;;;;;;;;;;;;;;;;5104383;28;19976;-53
2023/12/20 01:42:34;;;;;;;;;;;;;;;;;;5106487;28;20423;-53
2023/12/20 01:45:00;;;;;;;;;;;;;;;;;;5106347;28;19931;-53
2023/12/20 01:47:27;;;;;;;;;;;;;;;;;;5106649;28;19998;-53
2023/12/20 01:49:53;;;;;;;;;;;;;;;;;;5106866;28;19932;-53
2023/12/20 01:52:19;;;;;;;;;;;;;;;;;;5106779;28;20343;-54
2023/12/20 01:54:45;;;;;;;;;;;;;;;;;;5106383;28;20356;-54
2023/12/20 01:57:12;;;;;;;;;;;;;;;;;;5106098;27;20363;-53
2023/12/20 01:59:38;;;;;;;;;;;;;;;;;;5106217;28;19924;-54
2023/12/20 02:02:04;;;;;;;;;;;;;;;;;;5106209;28;19923;-53
2023/12/20 02:04:30;;;;;;;;;;;;;;;;;;5106561;28;19931;-53
2023/12/20 02:06:56;;;;;;;;;;;;;;;;;;5106602;28;19953;-53
2023/12/20 02:09:23;;;;;;;;;;;;;;;;;;5105941;28;19932;-54
2023/12/20 02:11:49;;;;;;;;;;;;;;;;;;5106726;28;19969;-53
2023/12/20 02:14:15;;;;;;;;;;;;;;;;;;5106429;28;19924;-53
2023/12/20 02:16:41;;;;;;;;;;;;;;;;;;5106370;28;19935;-53
2023/12/20 02:19:07;;;;;;;;;;;;;;;;;;5106019;28;19924;-53
2023/12/20 02:21:34;;;;;;;;;;;;;;;;;;5106753;28;20257;-53
2023/12/20 02:24:01;;;;;;;;;;;;;;;;;;5106523;28;19924;-54
2023/12/20 02:26:27;;;;;;;;;;;;;;;;;;5110034;28;20051;-53
2023/12/20 02:28:53;;;;;;;;;;;;;;;;;;5110380;28;19932;-54
2023/12/20 02:31:19;;;;;;;;;;;;;;;;;;5111030;28;19928;-53
2023/12/20 02:33:45;;;;;;;;;;;;;;;;;;5110365;28;19923;-52
2023/12/20 02:36:11;;;;;;;;;;;;;;;;;;5110317;28;19924;-53
2023/12/20 02:38:37;;;;;;;;;;;;;;;;;;5110239;28;19931;-53
2023/12/20 02:41:04;;;;;;;;;;;;;;;;;;5109940;28;19927;-53
2023/12/20 02:43:30;;;;;;;;;;;;;;;;;;5109892;28;20024;-53
2023/12/20 02:45:56;;;;;;;;;;;;;;;;;;5109616;28;20035;-53
2023/12/20 02:48:22;;;;;;;;;;;;;;;;;;5109454;28;20311;-53
2023/12/20 02:50:49;;;;;;;;;;;;;;;;;;5109997;28;19924;-54
2023/12/20 02:53:15;;;;;;;;;;;;;;;;;;5110229;28;19991;-54
2023/12/20 02:55:41;;;;;;;;;;;;;;;;;;5109587;28;19967;-54
2023/12/20 02:58:07;;;;;;;;;;;;;;;;;;5109511;28;20378;-54
2023/12/20 03:00:34;;;;;;;;;;;;;;;;;;5109751;28;19931;-53
2023/12/20 03:03:00;;;;;;;;;;;;;;;;;;5109469;28;19928;-53
2023/12/20 03:05:26;;;;;;;;;;;;;;;;;;5109776;27;19973;-54
2023/12/20 03:07:52;;;;;;;;;;;;;;;;;;5109206;28;20288;-53
2023/12/20 03:10:18;;;;;;;;;;;;;;;;;;5109630;28;20372;-53
2023/12/20 03:12:48;;;;;;;;;;;;;;;;;;5110325;28;20116;-52
2023/12/20 03:15:15;;;;;;;;;;;;;;;;;;5108773;28;19924;-53
2023/12/20 03:17:41;;;;;;;;;;;;;;;;;;5109509;28;20020;-53
2023/12/20 03:20:07;;;;;;;;;;;;;;;;;;5109677;28;19967;-53
2023/12/20 03:22:34;;;;;;;;;;;;;;;;;;5109591;28;19972;-53
2023/12/20 03:25:00;;;;;;;;;;;;;;;;;;5109035;28;20032;-53
2023/12/20 03:27:26;;;;;;;;;;;;;;;;;;5108869;28;19930;-54
2023/12/20 03:29:52;;;;;;;;;;;;;;;;;;5109490;28;19936;-53
2023/12/20 03:32:18;;;;;;;;;;;;;;;;;;5109677;28;19981;-53
2023/12/20 03:34:45;;;;;;;;;;;;;;;;;;5109130;28;19989;-54
2023/12/20 03:37:11;;;;;;;;;;;;;;;;;;5109207;28;20431;-53
2023/12/20 03:39:37;;;;;;;;;;;;;;;;;;5108630;28;19931;-54
2023/12/20 03:42:03;;;;;;;;;;;;;;;;;;5108576;28;20210;-54
2023/12/20 03:44:30;;;;;;;;;;;;;;;;;;5107952;28;19992;-53
2023/12/20 03:46:56;;;;;;;;;;;;;;;;;;5108790;28;20317;-53
2023/12/20 03:49:22;;;;;;;;;;;;;;;;;;5108472;28;19931;-52
2023/12/20 03:51:49;;;;;;;;;;;;;;;;;;5108809;28;20469;-54
2023/12/20 03:54:15;;;;;;;;;;;;;;;;;;5108591;28;20303;-52
2023/12/20 03:56:41;;;;;;;;;;;;;;;;;;5108385;28;19978;-53
2023/12/20 03:59:07;;;;;;;;;;;;;;;;;;5108090;28;20359;-53
2023/12/20 04:01:33;;;;;;;;;;;;;;;;;;5108354;28;19931;-53
2023/12/20 04:04:00;;;;;;;;;;;;;;;;;;5108142;28;19928;-53
2023/12/20 04:06:26;;;;;;;;;;;;;;;;;;5108032;28;19931;-54
2023/12/20 04:08:52;;;;;;;;;;;;;;;;;;5108052;28;19927;-53
2023/12/20 04:11:18;;;;;;;;;;;;;;;;;;5108206;28;20023;-54
2023/12/20 04:13:44;;;;;;;;;;;;;;;;;;5108169;28;19935;-53
2023/12/20 04:16:10;;;;;;;;;;;;;;;;;;5108329;28;19928;-52
2023/12/20 04:18:37;;;;;;;;;;;;;;;;;;5108397;28;20015;-53
2023/12/20 04:21:03;;;;;;;;;;;;;;;;;;5108631;28;19930;-54
2023/12/20 04:23:29;;;;;;;;;;;;;;;;;;5108124;28;20383;-54
2023/12/20 04:25:55;;;;;;;;;;;;;;;;;;5108370;28;19969;-54
2023/12/20 04:28:22;;;;;;;;;;;;;;;;;;5107438;28;19955;-53
2023/12/20 04:30:48;;;;;;;;;;;;;;;;;;5107866;28;19923;-53
2023/12/20 04:33:14;;;;;;;;;;;;;;;;;;5107521;28;19963;-53
2023/12/20 04:35:42;;;;;;;;;;;;;;;;;;5107922;28;19928;-54
2023/12/20 04:38:08;;;;;;;;;;;;;;;;;;5107326;28;20321;-53
2023/12/20 04:40:35;;;;;;;;;;;;;;;;;;5107599;28;19947;-54
2023/12/20 04:43:01;;;;;;;;;;;;;;;;;;5108353;28;20219;-53
2023/12/20 04:45:27;;;;;;;;;;;;;;;;;;5107003;28;20291;-53
2023/12/20 04:47:53;;;;;;;;;;;;;;;;;;5106834;28;19924;-53
2023/12/20 04:50:19;;;;;;;;;;;;;;;;;;5107776;28;19923;-53
2023/12/20 04:52:46;;;;;;;;;;;;;;;;;;5107583;28;19930;-53
2023/12/20 04:55:12;;;;;;;;;;;;;;;;;;5107151;28;19923;-52
2023/12/20 04:57:38;;;;;;;;;;;;;;;;;;5107108;28;19923;-53
2023/12/20 05:00:05;;;;;;;;;;;;;;;;;;5107644;28;19940;-53
2023/12/20 05:02:31;;;;;;;;;;;;;;;;;;5107393;28;19977;-53
2023/12/20 05:04:57;;;;;;;;;;;;;;;;;;5106702;28;19931;-53
2023/12/20 05:07:23;;;;;;;;;;;;;;;;;;5107059;28;19928;-53
2023/12/20 05:09:49;;;;;;;;;;;;;;;;;;5107364;27;19923;-53
2023/12/20 05:12:16;;;;;;;;;;;;;;;;;;5107435;28;20487;-53
2023/12/20 05:14:42;;;;;;;;;;;;;;;;;;5106833;28;20325;-52
2023/12/20 05:17:08;;;;;;;;;;;;;;;;;;5107173;28;19999;-53
2023/12/20 05:19:35;;;;;;;;;;;;;;;;;;5107376;28;19924;-53
2023/12/20 05:22:01;;;;;;;;;;;;;;;;;;5107519;28;19928;-53
2023/12/20 05:24:28;;;;;;;;;;;;;;;;;;5106923;28;19923;-53
2023/12/20 05:26:54;;;;;;;;;;;;;;;;;;5107101;28;19927;-53
2023/12/20 05:29:20;;;;;;;;;;;;;;;;;;5106015;28;19979;-53
2023/12/20 05:31:46;;;;;;;;;;;;;;;;;;5106897;28;19976;-53
2023/12/20 05:34:12;;;;;;;;;;;;;;;;;;5106404;28;19923;-54
2023/12/20 05:36:38;;;;;;;;;;;;;;;;;;5106857;28;19931;-53
2023/12/20 05:39:05;;;;;;;;;;;;;;;;;;5105974;28;20294;-53
2023/12/20 05:41:31;;;;;;;;;;;;;;;;;;5107190;28;19928;-53
2023/12/20 05:43:59;;;;;;;;;;;;;;;;;;5106954;28;20012;-54
2023/12/20 05:46:25;;;;;;;;;;;;;;;;;;5106831;28;19923;-53
2023/12/20 05:48:51;;;;;;;;;;;;;;;;;;5106468;28;19967;-53
2023/12/20 05:51:19;;;;;;;;;;;;;;;;;;5105698;28;21123;-53
2023/12/20 05:53:45;;;;;;;;;;;;;;;;;;5106068;28;19923;-53
2023/12/20 05:56:11;;;;;;;;;;;;;;;;;;5105349;28;19958;-52
2023/12/20 05:58:38;;;;;;;;;;;;;;;;;;5106743;28;19969;-53
2023/12/20 06:01:04;;;;;;;;;;;;;;;;;;5107059;28;19927;-54
2023/12/20 06:03:30;;;;;;;;;;;;;;;;;;5106097;28;19924;-54
2023/12/20 06:05:56;;;;;;;;;;;;;;;;;;5105532;28;19962;-54
2023/12/20 06:08:32;;;;;;;;;;;;;;;;;;5100658;28;19935;-52
2023/12/20 06:10:58;;;;;;;;;;;;;;;;;;5105936;28;19977;-53
2023/12/20 06:13:24;;;;;;;;;;;;;;;;;;5106330;28;19927;-53
2023/12/20 06:15:50;;;;;;;;;;;;;;;;;;5105708;28;20298;-53
2023/12/20 06:18:16;;;;;;;;;;;;;;;;;;5104421;28;20325;-53
2023/12/20 06:20:42;;;;;;;;;;;;;;;;;;5103476;28;19971;-54
2023/12/20 06:23:09;;;;;;;;;;;;;;;;;;5103347;28;20120;-53
2023/12/20 06:25:35;;;;;;;;;;;;;;;;;;5104365;28;19924;-53
2023/12/20 06:28:01;;;;;;;;;;;;;;;;;;5104875;28;19928;-53
2023/12/20 06:30:27;;;;;;;;;;;;;;;;;;5104823;28;19932;-52
2023/12/20 06:32:53;;;;;;;;;;;;;;;;;;5104258;28;19927;-53
2023/12/20 06:35:19;;;;;;;;;;;;;;;;;;5103922;28;19928;-52
2023/12/20 06:37:46;;;;;;;;;;;;;;;;;;5105208;28;20428;-53
2023/12/20 06:40:12;;;;;;;;;;;;;;;;;;5104487;28;19934;-53
2023/12/20 06:42:42;;;;;;;;;;;;;;;;;;5105108;28;19985;-52
2023/12/20 06:45:15;;;;;;;;;;;;;;;;;;5105166;28;19928;-52
2023/12/20 06:47:41;;;;;;;;;;;;;;;;;;5102360;28;19931;-54
2023/12/20 06:50:08;;;;;;;;;;;;;;;;;;5104775;28;20456;-54
2023/12/20 06:52:35;;;;;;;;;;;;;;;;;;5103583;28;20344;-55
2023/12/20 06:55:01;;;;;;;;;;;;;;;;;;5104268;28;20019;-53
2023/12/20 06:57:27;;;;;;;;;;;;;;;;;;5100751;28;19924;-55
2023/12/20 06:59:53;;;;;;;;;;;;;;;;;;5102890;28;19924;-54
2023/12/20 07:02:20;;;;;;;;;;;;;;;;;;5103159;28;19993;-50
2023/12/20 07:04:47;;;;;;;;;;;;;;;;;;5100539;28;19927;-53
2023/12/20 07:07:13;;;;;;;;;;;;;;;;;;5102428;28;19975;-54
2023/12/20 07:09:41;;;;;;;;;;;;;;;;;;5105216;28;19928;-54
2023/12/20 07:12:07;;;;;;;;;;;;;;;;;;5103639;28;19924;-53
2023/12/20 07:14:33;;;;;;;;;;;;;;;;;;5107111;27;20429;-54
2023/12/20 07:16:59;;;;;;;;;;;;;;;;;;5104476;28;20032;-54
2023/12/20 07:19:25;;;;;;;;;;;;;;;;;;5100990;28;20354;-53
2023/12/20 07:21:51;;;;;;;;;;;;;;;;;;5104314;28;20411;-53
2023/12/20 07:24:18;;;;;;;;;;;;;;;;;;5100930;28;19936;-53
2023/12/20 07:26:44;;;;;;;;;;;;;;;;;;5103433;28;19924;-54
2023/12/20 07:29:10;;;;;;;;;;;;;;;;;;5098943;28;20360;-53
2023/12/20 07:31:36;;;;;;;;;;;;;;;;;;5098386;28;20298;-53
2023/12/20 07:34:03;;;;;;;;;;;;;;;;;;5098509;28;20015;-53
2023/12/20 07:36:29;;;;;;;;;;;;;;;;;;5104675;28;19928;-54
2023/12/20 07:38:55;;;;;;;;;;;;;;;;;;5107040;28;19981;-53
2023/12/20 07:41:23;;;;;;;;;;;;;;;;;;5102176;28;19988;-53
2023/12/20 07:43:49;;;;;;;;;;;;;;;;;;5103685;28;19974;-53
2023/12/20 07:46:15;;;;;;;;;;;;;;;;;;5102526;27;19947;-54
2023/12/20 07:48:42;;;;;;;;;;;;;;;;;;5100554;28;19923;-54
2023/12/20 07:51:11;;;;;;;;;;;;;;;;;;5097235;28;20414;-54
2023/12/20 07:56:47;;;;;;;;;;;;;;;;;;5090006;28;20038;-55
2023/12/20 07:59:13;;;;;;;;;;;;;;;;;;5099871;28;20420;-55
2023/12/20 08:01:47;;;;;;;;;;;;;;;;;;5102258;28;19939;-55
2023/12/20 08:04:13;;;;;;;;;;;;;;;;;;5096575;28;19967;-55
2023/12/20 08:06:40;;;;;;;;;;;;;;;;;;5100628;27;19972;-55
2023/12/20 08:09:06;;;;;;;;;;;;;;;;;;5095892;28;19931;-55
2023/12/20 08:11:32;;;;;;;;;;;;;;;;;;5094779;27;20300;-55
2023/12/20 08:13:59;;;;;;;;;;;;;;;;;;5095841;28;20616;-55
2023/12/20 08:16:25;;;;;;;;;;;;;;;;;;5100467;27;19928;-56
2023/12/20 08:18:52;;;;;;;;;;;;;;;;;;5098858;27;19930;-55
2023/12/20 08:21:20;;;;;;;;;;;;;;;;;;5095869;27;19932;-55
2023/12/20 08:23:46;;;;;;;;;;;;;;;;;;5094539;28;21484;-55
2023/12/20 08:26:12;;;;;;;;;;;;;;;;;;5098093;28;20501;-55
2023/12/20 08:28:38;;;;;;;;;;;;;;;;;;5100662;28;20219;-54
2023/12/20 08:31:04;;;;;;;;;;;;;;;;;;5089945;27;19938;-55
2023/12/20 08:33:31;;;;;;;;;;;;;;;;;;5090427;27;19932;-55
2023/12/20 08:35:57;;;;;;;;;;;;;;;;;;5093397;27;19924;-55
2023/12/20 08:38:23;;;;;;;;;;;;;;;;;;5088446;27;19971;-55
2023/12/20 08:40:50;;;;;;;;;;;;;;;;;;5090241;27;19932;-55
2023/12/20 08:43:16;;;;;;;;;;;;;;;;;;5090662;27;20190;-55
2023/12/20 08:45:42;;;;;;;;;;;;;;;;;;5091092;27;20807;-55
2023/12/20 08:48:08;;;;;;;;;;;;;;;;;;5093659;27;20431;-55
2023/12/20 08:50:36;;;;;;;;;;;;;;;;;;5088582;27;19959;-55
2023/12/20 08:53:02;;;;;;;;;;;;;;;;;;5092223;27;19931;-55
2023/12/20 08:55:30;;;;;;;;;;;;;;;;;;5091251;27;19932;-55
2023/12/20 08:57:57;;;;;;;;;;;;;;;;;;5099358;28;19923;-55
2023/12/20 09:00:25;;;;;;;;;;;;;;;;;;5101751;27;19932;-55
2023/12/20 09:02:51;;;;;;;;;;;;;;;;;;5101545;28;20318;-55
2023/12/20 09:05:18;;;;;;;;;;;;;;;;;;5088394;28;19939;-54
2023/12/20 09:07:44;;;;;;;;;;;;;;;;;;5094001;28;20298;-55
2023/12/20 09:10:10;;;;;;;;;;;;;;;;;;5087692;28;19928;-54
2023/12/20 09:12:39;;;;;;;;;;;;;;;;;;5092384;27;19959;-51
2023/12/20 09:15:06;;;;;;;;;;;;;;;;;;5089896;27;20349;-54
2023/12/20 09:17:32;;;;;;;;;;;;;;;;;;5091958;27;20006;-55
2023/12/20 09:19:59;;;;;;;;;;;;;;;;;;5087414;27;19932;-54
2023/12/20 09:22:26;;;;;;;;;;;;;;;;;;5093988;27;19932;-54
2023/12/20 09:24:52;;;;;;;;;;;;;;;;;;5092096;27;19944;-54
2023/12/20 09:27:18;;;;;;;;;;;;;;;;;;5093013;27;20178;-55
2023/12/20 09:29:44;;;;;;;;;;;;;;;;;;5092074;27;20061;-55
2023/12/20 09:32:11;;;;;;;;;;;;;;;;;;5089609;28;19939;-55
2023/12/20 09:34:37;;;;;;;;;;;;;;;;;;5091126;28;19936;-55
2023/12/20 09:37:03;;;;;;;;;;;;;;;;;;5093708;28;20294;-55
2023/12/20 09:39:31;;;;;;;;;;;;;;;;;;5095399;28;19957;-55
2023/12/20 09:41:57;;;;;;;;;;;;;;;;;;5098617;28;19927;-55
2023/12/20 09:44:23;;;;;;;;;;;;;;;;;;5091469;28;20017;-55
2023/12/20 09:46:50;;;;;;;;;;;;;;;;;;5095160;28;20404;-54
2023/12/20 09:49:16;;;;;;;;;;;;;;;;;;5092987;27;19936;-55
2023/12/20 09:51:43;;;;;;;;;;;;;;;;;;5098617;28;19924;-55
2023/12/20 09:54:09;;;;;;;;;;;;;;;;;;5100382;28;19938;-55
2023/12/20 09:56:35;;;;;;;;;;;;;;;;;;5095333;28;19932;-55
2023/12/20 09:59:01;;;;;;;;;;;;;;;;;;5097006;28;19993;-55
2023/12/20 10:01:27;;;;;;;;;;;;;;;;;;5094213;28;19928;-55
2023/12/20 10:03:54;;;;;;;;;;;;;;;;;;5093717;28;19989;-61
2023/12/20 10:06:20;;;;;;;;;;;;;;;;;;5093979;28;20038;-55
2023/12/20 10:08:46;;;;;;;;;;;;;;;;;;5096773;28;20009;-55
2023/12/20 10:11:13;;;;;;;;;;;;;;;;;;5091424;28;19931;-55
2023/12/20 10:13:40;;;;;;;;;;;;;;;;;;5097531;28;19984;-54
2023/12/20 10:16:08;;;;;;;;;;;;;;;;;;5092932;28;19924;-55
2023/12/20 10:18:34;;;;;;;;;;;;;;;;;;5092898;28;19931;-54
2023/12/20 10:21:03;;;;;;;;;;;;;;;;;;5099905;28;20256;-54
2023/12/20 10:23:30;;;;;;;;;;;;;;;;;;5099334;28;19924;-55
2023/12/20 10:25:57;;;;;;;;;;;;;;;;;;5104332;28;19924;-55
2023/12/20 10:28:27;;;;;;;;;;;;;;;;;;5099254;28;19953;-55
2023/12/20 10:30:53;;;;;;;;;;;;;;;;;;5098251;28;20285;-55
2023/12/20 10:33:20;;;;;;;;;;;;;;;;;;5096685;28;19932;-55
2023/12/20 10:35:47;;;;;;;;;;;;;;;;;;5090507;28;19973;-55
2023/12/20 10:38:14;;;;;;;;;;;;;;;;;;5093421;28;20456;-55
2023/12/20 10:40:40;;;;;;;;;;;;;;;;;;5095774;28;19932;-55
2023/12/20 10:43:07;;;;;;;;;;;;;;;;;;5093475;28;20083;-55
2023/12/20 10:45:33;;;;;;;;;;;;;;;;;;5094954;28;20135;-54
2023/12/20 10:47:59;;;;;;;;;;;;;;;;;;5101238;28;20368;-55
2023/12/20 10:50:26;;;;;;;;;;;;;;;;;;5103305;28;20193;-61
2023/12/20 10:52:55;;;;;;;;;;;;;;;;;;5096672;27;20399;-60
2023/12/20 10:55:21;;;;;;;;;;;;;;;;;;5097462;27;20430;-53
2023/12/20 10:57:50;;;;;;;;;;;;;;;;;;5093959;28;20463;-42
2023/12/20 11:00:16;;;;;;;;;;;;;;;;;;5095713;27;20269;-43
2023/12/20 11:02:43;;;;;;;;;;;;;;;;;;5096799;27;19990;-44
2023/12/20 11:05:09;;;;;;;;;;;;;;;;;;5096579;27;20048;-43
2023/12/20 11:07:35;;;;;;;;;;;;;;;;;;5098135;27;19932;-43
2023/12/20 11:10:01;;;;;;;;;;;;;;;;;;5102630;27;19930;-42
2023/12/20 11:12:28;;;;;;;;;;;;;;;;;;5096329;27;20339;-43
2023/12/20 11:14:57;;;;;;;;;;;;;;;;;;5093058;27;19924;-42
2023/12/20 11:17:24;;;;;;;;;;;;;;;;;;5097811;27;19949;-43
2023/12/20 11:19:50;;;;;;;;;;;;;;;;;;5097147;28;20391;-41
2023/12/20 11:22:16;;;;;;;;;;;;;;;;;;5103690;28;19935;-41
2023/12/20 11:24:42;;;;;;;;;;;;;;;;;;5103951;28;20381;-41
2023/12/20 11:27:08;;;;;;;;;;;;;;;;;;5098229;28;19928;-45
2023/12/20 11:29:35;;;;;;;;;;;;;;;;;;5101825;28;19927;-41
2023/12/20 11:32:01;;;;;;;;;;;;;;;;;;5101375;27;20010;-41
2023/12/20 11:34:27;;;;;;;;;;;;;;;;;;5098371;27;20337;-41
2023/12/20 11:36:53;;;;;;;;;;;;;;;;;;5103145;28;19924;-43
2023/12/20 11:39:20;;;;;;;;;;;;;;;;;;5105131;28;20367;-44
2023/12/20 11:41:46;;;;;;;;;;;;;;;;;;5099887;27;19963;-41
2023/12/20 11:44:13;;;;;;;;;;;;;;;;;;5097186;28;19981;-42
2023/12/20 11:46:39;;;;;;;;;;;;;;;;;;5092169;28;20231;-40
2023/12/20 11:49:05;;;;;;;;;;;;;;;;;;5101575;28;19999;-44
2023/12/20 11:51:32;;;;;;;;;;;;;;;;;;5095829;28;19939;-41
2023/12/20 11:53:58;;;;;;;;;;;;;;;;;;5105636;28;20287;-45
2023/12/20 11:56:24;;;;;;;;;;;;;;;;;;5099696;28;19985;-44
2023/12/20 11:58:50;;;;;;;;;;;;;;;;;;5100487;28;19928;-42
2023/12/20 12:01:17;;;;;;;;;;;;;;;;;;5102730;28;19935;-43
2023/12/20 12:03:43;;;;;;;;;;;;;;;;;;5105582;28;19956;-40
2023/12/20 12:06:09;;;;;;;;;;;;;;;;;;5100096;28;20007;-44
2023/12/20 12:08:35;;;;;;;;;;;;;;;;;;5105826;28;19923;-41
2023/12/20 12:11:02;;;;;;;;;;;;;;;;;;5101517;28;19932;-42
2023/12/20 12:13:28;;;;;;;;;;;;;;;;;;5104062;28;19927;-43
2023/12/20 12:15:54;;;;;;;;;;;;;;;;;;5102755;28;19934;-42
2023/12/20 12:18:20;;;;;;;;;;;;;;;;;;5103698;28;19924;-41
2023/12/20 12:20:47;;;;;;;;;;;;;;;;;;5100803;28;20302;-41
2023/12/20 12:23:13;;;;;;;;;;;;;;;;;;5095816;28;19935;-43
2023/12/20 12:25:40;;;;;;;;;;;;;;;;;;5102201;28;19924;-41
2023/12/20 12:28:08;;;;;;;;;;;;;;;;;;5099115;28;19973;-46
2023/12/20 12:30:34;;;;;;;;;;;;;;;;;;5102494;27;20426;-42
2023/12/20 12:33:05;;;;;;;;;;;;;;;;;;5100305;28;20640;-44
2023/12/20 12:35:31;;;;;;;;;;;;;;;;;;5100184;28;19930;-42
2023/12/20 12:37:57;;;;;;;;;;;;;;;;;;5100943;28;20435;-41
2023/12/20 12:40:23;;;;;;;;;;;;;;;;;;5098274;28;20424;-41
2023/12/20 12:42:49;;;;;;;;;;;;;;;;;;5099976;28;20000;-41
2023/12/20 12:45:15;;;;;;;;;;;;;;;;;;5095744;28;20407;-43
2023/12/20 12:47:42;;;;;;;;;;;;;;;;;;5098902;28;20024;-44
2023/12/20 12:50:08;;;;;;;;;;;;;;;;;;5101024;28;20364;-41
2023/12/20 12:52:35;;;;;;;;;;;;;;;;;;5096373;28;19927;-42
2023/12/20 12:55:01;;;;;;;;;;;;;;;;;;5102180;28;19932;-41
2023/12/20 12:57:27;;;;;;;;;;;;;;;;;;5101889;28;19931;-41
2023/12/20 12:59:54;;;;;;;;;;;;;;;;;;5102827;28;20368;-41
2023/12/20 13:02:20;;;;;;;;;;;;;;;;;;5100233;28;20024;-40
2023/12/20 13:04:46;;;;;;;;;;;;;;;;;;5101983;28;19924;-45
2023/12/20 13:07:12;;;;;;;;;;;;;;;;;;5102209;28;20380;-43
2023/12/20 13:09:38;;;;;;;;;;;;;;;;;;5097225;28;20441;-42
2023/12/20 13:12:06;;;;;;;;;;;;;;;;;;5100764;28;19923;-42
2023/12/20 13:14:32;;;;;;;;;;;;;;;;;;5103426;27;20528;-42
2023/12/20 13:17:00;;;;;;;;;;;;;;;;;;5101936;28;19931;-41
2023/12/20 13:19:26;;;;;;;;;;;;;;;;;;5098572;28;19984;-43
2023/12/20 13:21:52;;;;;;;;;;;;;;;;;;5092847;28;20157;-45
2023/12/20 13:24:18;;;;;;;;;;;;;;;;;;5095490;28;19930;-43
2023/12/20 13:26:44;;;;;;;;;;;;;;;;;;5098707;28;20020;-43
2023/12/20 13:29:12;;;;;;;;;;;;;;;;;;5099020;28;19972;-41
2023/12/20 13:31:39;;;;;;;;;;;;;;;;;;5095834;28;19931;-42
2023/12/20 13:34:06;;;;;;;;;;;;;;;;;;5096099;28;20104;-44
2023/12/20 13:36:32;;;;;;;;;;;;;;;;;;5088953;28;19923;-44
2023/12/20 13:38:58;;;;;;;;;;;;;;;;;;5094646;28;19931;-42
2023/12/20 13:41:24;;;;;;;;;;;;;;;;;;5100635;28;20276;-44
2023/12/20 13:43:50;;;;;;;;;;;;;;;;;;5100177;28;19925;-43
2023/12/20 13:46:17;;;;;;;;;;;;;;;;;;5115364;27;19924;-43
2023/12/20 13:48:43;;;;;;;;;;;;;;;;;;5110651;27;19924;-45
2023/12/20 13:51:09;;;;;;;;;;;;;;;;;;5109775;28;19931;-43
2023/12/20 13:53:35;;;;;;;;;;;;;;;;;;5109871;28;19977;-41
2023/12/20 13:56:01;;;;;;;;;;;;;;;;;;5110434;28;20049;-43
2023/12/20 13:58:28;;;;;;;;;;;;;;;;;;5111888;28;20270;-45
2023/12/20 14:00:54;;;;;;;;;;;;;;;;;;5110400;28;19931;-42
2023/12/20 14:03:20;;;;;;;;;;;;;;;;;;5108695;28;19992;-42
2023/12/20 14:05:46;;;;;;;;;;;;;;;;;;5094745;28;19969;-41
2023/12/20 14:08:13;;;;;;;;;;;;;;;;;;5103225;28;20338;-42
2023/12/20 14:10:39;;;;;;;;;;;;;;;;;;5109027;28;19924;-43
2023/12/20 14:13:05;;;;;;;;;;;;;;;;;;5096761;28;19947;-41
2023/12/20 14:15:36;;;;;;;;;;;;;;;;;;5095759;28;19923;-43
2023/12/20 14:18:02;;;;;;;;;;;;;;;;;;5098858;28;19928;-42
2023/12/20 14:20:29;;;;;;;;;;;;;;;;;;5122444;27;20010;-43
2023/12/20 14:22:55;;;;;;;;;;;;;;;;;;5116657;27;20020;-43
2023/12/20 14:25:23;;;;;;;;;;;;;;;;;;5115048;28;19923;-42
2023/12/20 14:27:49;;;;;;;;;;;;;;;;;;5114397;28;19931;-47
2023/12/20 14:30:16;;;;;;;;;;;;;;;;;;5115540;28;20006;-42
2023/12/20 14:32:43;;;;;;;;;;;;;;;;;;5112409;28;19924;-41
2023/12/20 14:35:09;;;;;;;;;;;;;;;;;;5114220;28;19924;-41
2023/12/20 14:37:38;;;;;;;;;;;;;;;;;;5100101;28;20330;-40
2023/12/20 14:40:04;;;;;;;;;;;;;;;;;;5094092;28;19981;-43
2023/12/20 14:42:32;;;;;;;;;;;;;;;;;;5110167;28;20540;-42
2023/12/20 14:44:58;;;;;;;;;;;;;;;;;;5109631;27;19985;-42
2023/12/20 14:47:25;;;;;;;;;;;;;;;;;;5113928;28;19973;-44
2023/12/20 14:49:51;;;;;;;;;;;;;;;;;;5114466;28;20299;-44
2023/12/20 14:52:17;;;;;;;;;;;;;;;;;;5107894;28;20376;-42
2023/12/20 14:54:43;;;;;;;;;;;;;;;;;;5114055;27;19955;-43
2023/12/20 14:57:09;;;;;;;;;;;;;;;;;;5115928;28;20326;-43
2023/12/20 14:59:35;;;;;;;;;;;;;;;;;;5116628;28;20278;-44
2023/12/20 15:02:04;;;;;;;;;;;;;;;;;;5116623;28;19931;-42
2023/12/20 15:04:30;;;;;;;;;;;;;;;;;;5116180;28;19924;-44
2023/12/20 15:06:57;;;;;;;;;;;;;;;;;;5116811;28;19946;-42
2023/12/20 15:09:24;;;;;;;;;;;;;;;;;;5115551;28;20287;-44
2023/12/20 15:11:50;;;;;;;;;;;;;;;;;;5115371;28;19928;-42
2023/12/20 15:14:19;;;;;;;;;;;;;;;;;;5116296;28;19949;-43
2023/12/20 15:16:47;;;;;;;;;;;;;;;;;;5116571;28;19930;-45
2023/12/20 15:19:13;;;;;;;;;;;;;;;;;;5115477;28;19973;-41
2023/12/20 15:21:42;;;;;;;;;;;;;;;;;;5114720;28;20008;-43
2023/12/20 15:24:16;;;;;;;;;;;;;;;;;;5116178;28;19928;-44
2023/12/20 15:26:42;;;;;;;;;;;;;;;;;;5113601;28;19924;-41
2023/12/20 15:29:09;;;;;;;;;;;;;;;;;;5110561;28;20325;-43
2023/12/20 15:31:36;;;;;;;;;;;;;;;;;;5115544;28;19923;-43
2023/12/20 15:34:02;;;;;;;;;;;;;;;;;;5115611;28;20321;-41
2023/12/20 15:36:29;;;;;;;;;;;;;;;;;;5116193;28;19939;-42
2023/12/20 15:38:55;;;;;;;;;;;;;;;;;;5115258;28;20355;-45
2023/12/20 15:41:21;;;;;;;;;;;;;;;;;;5116153;28;20369;-43
2023/12/20 15:43:47;;;;;;;;;;;;;;;;;;5116232;28;19928;-42
2023/12/20 15:46:13;;;;;;;;;;;;;;;;;;5115809;28;19927;-44
2023/12/20 15:48:39;;;;;;;;;;;;;;;;;;5115850;28;19924;-42
2023/12/20 15:51:05;;;;;;;;;;;;;;;;;;5115865;28;19927;-42
2023/12/20 15:53:32;;;;;;;;;;;;;;;;;;5115751;28;19928;-40
2023/12/20 15:55:58;;;;;;;;;;;;;;;;;;5115688;28;19923;-41
2023/12/20 15:58:24;;;;;;;;;;;;;;;;;;5115821;28;19931;-42
2023/12/20 16:00:50;;;;;;;;;;;;;;;;;;5115854;28;20348;-42
2023/12/20 16:03:16;;;;;;;;;;;;;;;;;;5115637;28;19924;-41
2023/12/20 16:05:49;;;;;;;;;;;;;;;;;;5115267;28;20313;-42
2023/12/20 16:08:15;;;;;;;;;;;;;;;;;;5115449;28;19936;-41
2023/12/20 16:10:42;;;;;;;;;;;;;;;;;;5114991;28;19928;-41
2023/12/20 16:13:09;;;;;;;;;;;;;;;;;;5115442;28;20477;-41
2023/12/20 16:15:35;;;;;;;;;;;;;;;;;;5115049;28;19931;-42
2023/12/20 16:18:01;;;;;;;;;;;;;;;;;;5115537;28;19950;-41
2023/12/20 16:20:27;;;;;;;;;;;;;;;;;;5115118;28;20288;-42
2023/12/20 16:22:53;;;;;;;;;;;;;;;;;;5115443;27;20420;-45
2023/12/20 16:25:19;;;;;;;;;;;;;;;;;;5114175;28;19949;-40
2023/12/20 16:27:48;;;;;;;;;;;;;;;;;;5114398;28;19924;-42
2023/12/20 16:30:14;;;;;;;;;;;;;;;;;;5114222;28;20005;-43
2023/12/20 16:32:41;;;;;;;;;;;;;;;;;;5114409;28;19928;-43
2023/12/20 16:35:07;;;;;;;;;;;;;;;;;;5114527;28;19924;-43
2023/12/20 16:37:37;;;;;;;;;;;;;;;;;;5114656;28;19967;-45
2023/12/20 16:40:03;;;;;;;;;;;;;;;;;;5113669;28;20011;-43
2023/12/20 16:42:29;;;;;;;;;;;;;;;;;;5114459;28;19927;-41